sensor_id;sensor_type;location;lat;lon;timestamp;temperature;humidity
83283;DHT22;73190;50.780;5.658;2023-10-31T00:01:07;13.40;79.90
83283;DHT22;73190;50.780;5.658;2023-10-31T00:03:35;13.30;79.90
83283;DHT22;73190;50.780;5.658;2023-10-31T00:06:03;13.30;79.80
83283;DHT22;73190;50.780;5.658;2023-10-31T00:08:30;13.30;80.00
83283;DHT22;73190;50.780;5.658;2023-10-31T00:10:59;13.30;80.20
83283;DHT22;73190;50.780;5.658;2023-10-31T00:13:26;13.20;80.00
83283;DHT22;73190;50.780;5.658;2023-10-31T00:15:56;13.30;79.70
83283;DHT22;73190;50.780;5.658;2023-10-31T00:18:25;13.20;79.60
83283;DHT22;73190;50.780;5.658;2023-10-31T00:20:52;13.30;79.50
83283;DHT22;73190;50.780;5.658;2023-10-31T00:23:22;13.40;79.20
83283;DHT22;73190;50.780;5.658;2023-10-31T00:25:51;13.30;79.90
83283;DHT22;73190;50.780;5.658;2023-10-31T00:28:19;13.30;79.80
83283;DHT22;73190;50.780;5.658;2023-10-31T00:30:46;13.10;80.30
83283;DHT22;73190;50.780;5.658;2023-10-31T00:33:14;13.00;81.00
83283;DHT22;73190;50.780;5.658;2023-10-31T00:35:43;13.20;81.00
83283;DHT22;73190;50.780;5.658;2023-10-31T00:38:11;13.20;80.60
83283;DHT22;73190;50.780;5.658;2023-10-31T00:40:38;13.30;80.20
83283;DHT22;73190;50.780;5.658;2023-10-31T00:43:06;13.40;79.60
83283;DHT22;73190;50.780;5.658;2023-10-31T00:45:33;13.20;79.50
83283;DHT22;73190;50.780;5.658;2023-10-31T00:48:03;13.10;80.60
83283;DHT22;73190;50.780;5.658;2023-10-31T00:50:31;13.20;80.90
83283;DHT22;73190;50.780;5.658;2023-10-31T00:52:58;13.20;80.20
83283;DHT22;73190;50.780;5.658;2023-10-31T00:55:26;13.30;79.80
83283;DHT22;73190;50.780;5.658;2023-10-31T00:57:54;13.40;79.10
83283;DHT22;73190;50.780;5.658;2023-10-31T01:00:22;13.40;79.50
83283;DHT22;73190;50.780;5.658;2023-10-31T01:02:53;13.30;79.50
83283;DHT22;73190;50.780;5.658;2023-10-31T01:05:21;13.30;79.70
83283;DHT22;73190;50.780;5.658;2023-10-31T01:07:49;13.30;80.30
83283;DHT22;73190;50.780;5.658;2023-10-31T01:10:18;13.40;79.40
83283;DHT22;73190;50.780;5.658;2023-10-31T01:12:46;13.20;79.40
83283;DHT22;73190;50.780;5.658;2023-10-31T01:15:13;13.20;79.90
83283;DHT22;73190;50.780;5.658;2023-10-31T01:17:41;13.30;79.30
83283;DHT22;73190;50.780;5.658;2023-10-31T01:20:09;13.20;80.10
83283;DHT22;73190;50.780;5.658;2023-10-31T01:22:38;13.20;79.70
83283;DHT22;73190;50.780;5.658;2023-10-31T01:25:07;13.10;80.40
83283;DHT22;73190;50.780;5.658;2023-10-31T01:27:34;13.10;80.00
83283;DHT22;73190;50.780;5.658;2023-10-31T01:30:02;13.10;81.00
83283;DHT22;73190;50.780;5.658;2023-10-31T01:32:30;13.20;80.10
83283;DHT22;73190;50.780;5.658;2023-10-31T01:34:57;13.30;79.70
83283;DHT22;73190;50.780;5.658;2023-10-31T01:37:25;13.30;79.70
83283;DHT22;73190;50.780;5.658;2023-10-31T01:39:54;13.30;79.30
83283;DHT22;73190;50.780;5.658;2023-10-31T01:42:21;13.20;80.10
83283;DHT22;73190;50.780;5.658;2023-10-31T01:44:49;13.20;79.60
83283;DHT22;73190;50.780;5.658;2023-10-31T01:47:16;13.20;79.70
83283;DHT22;73190;50.780;5.658;2023-10-31T01:49:44;13.20;80.10
83283;DHT22;73190;50.780;5.658;2023-10-31T01:52:11;13.30;79.10
83283;DHT22;73190;50.780;5.658;2023-10-31T01:54:39;13.20;79.40
83283;DHT22;73190;50.780;5.658;2023-10-31T01:57:06;13.20;79.00
83283;DHT22;73190;50.780;5.658;2023-10-31T01:59:34;13.10;79.10
83283;DHT22;73190;50.780;5.658;2023-10-31T02:02:02;13.00;80.10
83283;DHT22;73190;50.780;5.658;2023-10-31T02:04:30;13.00;80.00
83283;DHT22;73190;50.780;5.658;2023-10-31T02:06:58;12.90;80.50
83283;DHT22;73190;50.780;5.658;2023-10-31T02:09:25;13.00;80.30
83283;DHT22;73190;50.780;5.658;2023-10-31T02:11:55;13.00;80.80
83283;DHT22;73190;50.780;5.658;2023-10-31T02:14:24;13.00;80.60
83283;DHT22;73190;50.780;5.658;2023-10-31T02:16:52;13.00;80.30
83283;DHT22;73190;50.780;5.658;2023-10-31T02:19:22;13.00;80.30
83283;DHT22;73190;50.780;5.658;2023-10-31T02:21:50;12.80;80.70
83283;DHT22;73190;50.780;5.658;2023-10-31T02:24:17;12.90;81.20
83283;DHT22;73190;50.780;5.658;2023-10-31T02:26:45;12.90;81.30
83283;DHT22;73190;50.780;5.658;2023-10-31T02:29:13;13.00;80.70
83283;DHT22;73190;50.780;5.658;2023-10-31T02:31:40;13.10;80.10
83283;DHT22;73190;50.780;5.658;2023-10-31T02:34:08;13.20;80.20
83283;DHT22;73190;50.780;5.658;2023-10-31T02:36:35;13.10;80.90
83283;DHT22;73190;50.780;5.658;2023-10-31T02:39:04;13.20;80.20
83283;DHT22;73190;50.780;5.658;2023-10-31T02:41:32;13.20;80.00
83283;DHT22;73190;50.780;5.658;2023-10-31T02:44:02;13.20;79.90
83283;DHT22;73190;50.780;5.658;2023-10-31T02:46:30;13.20;80.00
83283;DHT22;73190;50.780;5.658;2023-10-31T02:48:58;13.30;79.70
83283;DHT22;73190;50.780;5.658;2023-10-31T02:51:25;13.30;79.60
83283;DHT22;73190;50.780;5.658;2023-10-31T02:53:54;13.40;79.20
83283;DHT22;73190;50.780;5.658;2023-10-31T02:56:21;13.40;78.80
83283;DHT22;73190;50.780;5.658;2023-10-31T02:58:49;13.40;79.20
83283;DHT22;73190;50.780;5.658;2023-10-31T03:01:20;13.40;79.00
83283;DHT22;73190;50.780;5.658;2023-10-31T03:03:50;13.40;78.60
83283;DHT22;73190;50.780;5.658;2023-10-31T03:06:19;13.40;78.70
83283;DHT22;73190;50.780;5.658;2023-10-31T03:08:51;13.30;79.20
83283;DHT22;73190;50.780;5.658;2023-10-31T03:11:23;13.40;79.10
83283;DHT22;73190;50.780;5.658;2023-10-31T03:13:52;13.40;79.10
83283;DHT22;73190;50.780;5.658;2023-10-31T03:16:21;13.10;79.80
83283;DHT22;73190;50.780;5.658;2023-10-31T03:18:49;13.20;79.80
83283;DHT22;73190;50.780;5.658;2023-10-31T03:21:17;13.20;79.10
83283;DHT22;73190;50.780;5.658;2023-10-31T03:23:49;13.10;80.30
83283;DHT22;73190;50.780;5.658;2023-10-31T03:26:18;13.00;80.70
83283;DHT22;73190;50.780;5.658;2023-10-31T03:28:49;12.90;81.70
83283;DHT22;73190;50.780;5.658;2023-10-31T03:31:18;12.90;81.20
83283;DHT22;73190;50.780;5.658;2023-10-31T03:33:47;13.00;80.80
83283;DHT22;73190;50.780;5.658;2023-10-31T03:36:15;13.10;80.20
83283;DHT22;73190;50.780;5.658;2023-10-31T03:38:45;13.10;80.20
83283;DHT22;73190;50.780;5.658;2023-10-31T03:41:13;13.00;80.60
83283;DHT22;73190;50.780;5.658;2023-10-31T03:43:40;12.90;81.30
83283;DHT22;73190;50.780;5.658;2023-10-31T03:46:09;13.00;80.60
83283;DHT22;73190;50.780;5.658;2023-10-31T03:48:38;13.00;80.60
83283;DHT22;73190;50.780;5.658;2023-10-31T03:51:06;12.90;80.90
83283;DHT22;73190;50.780;5.658;2023-10-31T03:53:33;12.80;80.70
83283;DHT22;73190;50.780;5.658;2023-10-31T03:56:01;12.70;81.70
83283;DHT22;73190;50.780;5.658;2023-10-31T03:58:29;12.90;81.10
83283;DHT22;73190;50.780;5.658;2023-10-31T04:00:56;13.00;80.40
83283;DHT22;73190;50.780;5.658;2023-10-31T04:03:24;13.00;80.50
83283;DHT22;73190;50.780;5.658;2023-10-31T04:05:51;13.00;80.00
83283;DHT22;73190;50.780;5.658;2023-10-31T04:08:21;12.90;80.70
83283;DHT22;73190;50.780;5.658;2023-10-31T04:10:48;12.90;80.00
83283;DHT22;73190;50.780;5.658;2023-10-31T04:13:15;13.00;79.80
83283;DHT22;73190;50.780;5.658;2023-10-31T04:15:49;12.80;80.60
83283;DHT22;73190;50.780;5.658;2023-10-31T04:18:16;12.80;80.80
83283;DHT22;73190;50.780;5.658;2023-10-31T04:20:45;12.80;80.40
83283;DHT22;73190;50.780;5.658;2023-10-31T04:23:12;12.70;80.50
83283;DHT22;73190;50.780;5.658;2023-10-31T04:25:40;12.60;81.40
83283;DHT22;73190;50.780;5.658;2023-10-31T04:28:07;12.60;81.30
83283;DHT22;73190;50.780;5.658;2023-10-31T04:30:35;12.60;81.50
83283;DHT22;73190;50.780;5.658;2023-10-31T04:33:02;12.70;81.00
83283;DHT22;73190;50.780;5.658;2023-10-31T04:35:30;12.70;80.30
83283;DHT22;73190;50.780;5.658;2023-10-31T04:37:57;12.60;80.70
83283;DHT22;73190;50.780;5.658;2023-10-31T04:40:26;12.60;81.40
83283;DHT22;73190;50.780;5.658;2023-10-31T04:42:54;12.60;81.30
83283;DHT22;73190;50.780;5.658;2023-10-31T04:45:22;12.60;81.00
83283;DHT22;73190;50.780;5.658;2023-10-31T04:47:49;12.50;81.90
83283;DHT22;73190;50.780;5.658;2023-10-31T04:50:17;12.40;81.80
83283;DHT22;73190;50.780;5.658;2023-10-31T04:52:44;12.40;81.70
83283;DHT22;73190;50.780;5.658;2023-10-31T04:55:12;12.50;81.00
83283;DHT22;73190;50.780;5.658;2023-10-31T04:57:40;12.60;80.70
83283;DHT22;73190;50.780;5.658;2023-10-31T05:00:08;12.60;80.40
83283;DHT22;73190;50.780;5.658;2023-10-31T05:02:36;12.60;80.40
83283;DHT22;73190;50.780;5.658;2023-10-31T05:05:03;12.70;80.20
83283;DHT22;73190;50.780;5.658;2023-10-31T05:07:32;12.70;80.00
83283;DHT22;73190;50.780;5.658;2023-10-31T05:09:59;12.70;79.50
83283;DHT22;73190;50.780;5.658;2023-10-31T05:12:27;12.50;81.00
83283;DHT22;73190;50.780;5.658;2023-10-31T05:14:54;12.50;81.10
83283;DHT22;73190;50.780;5.658;2023-10-31T05:17:25;12.40;81.20
83283;DHT22;73190;50.780;5.658;2023-10-31T05:19:54;12.50;80.40
83283;DHT22;73190;50.780;5.658;2023-10-31T05:22:22;12.60;80.20
83283;DHT22;73190;50.780;5.658;2023-10-31T05:24:50;12.60;80.10
83283;DHT22;73190;50.780;5.658;2023-10-31T05:27:20;12.50;80.10
83283;DHT22;73190;50.780;5.658;2023-10-31T05:29:47;12.30;81.30
83283;DHT22;73190;50.780;5.658;2023-10-31T05:32:14;12.20;81.50
83283;DHT22;73190;50.780;5.658;2023-10-31T05:34:42;12.20;81.50
83283;DHT22;73190;50.780;5.658;2023-10-31T05:37:09;12.30;81.20
83283;DHT22;73190;50.780;5.658;2023-10-31T05:39:38;12.40;80.70
83283;DHT22;73190;50.780;5.658;2023-10-31T05:42:06;12.30;81.00
83283;DHT22;73190;50.780;5.658;2023-10-31T05:44:33;12.30;81.20
83283;DHT22;73190;50.780;5.658;2023-10-31T05:47:01;12.20;81.30
83283;DHT22;73190;50.780;5.658;2023-10-31T05:49:28;12.40;80.70
83283;DHT22;73190;50.780;5.658;2023-10-31T05:51:56;12.30;81.40
83283;DHT22;73190;50.780;5.658;2023-10-31T05:54:24;12.10;82.00
83283;DHT22;73190;50.780;5.658;2023-10-31T05:56:52;12.20;81.60
83283;DHT22;73190;50.780;5.658;2023-10-31T05:59:20;12.00;82.50
83283;DHT22;73190;50.780;5.658;2023-10-31T06:01:47;12.00;82.70
83283;DHT22;73190;50.780;5.658;2023-10-31T06:04:16;12.10;82.20
83283;DHT22;73190;50.780;5.658;2023-10-31T06:06:44;12.20;81.50
83283;DHT22;73190;50.780;5.658;2023-10-31T06:09:11;12.30;81.10
83283;DHT22;73190;50.780;5.658;2023-10-31T06:11:43;12.20;81.40
83283;DHT22;73190;50.780;5.658;2023-10-31T06:14:11;12.20;81.20
83283;DHT22;73190;50.780;5.658;2023-10-31T06:16:45;12.10;82.00
83283;DHT22;73190;50.780;5.658;2023-10-31T06:19:12;12.00;82.00
83283;DHT22;73190;50.780;5.658;2023-10-31T06:21:40;12.10;81.70
83283;DHT22;73190;50.780;5.658;2023-10-31T06:24:08;12.10;81.60
83283;DHT22;73190;50.780;5.658;2023-10-31T06:26:35;12.10;81.60
83283;DHT22;73190;50.780;5.658;2023-10-31T06:29:03;12.10;81.80
83283;DHT22;73190;50.780;5.658;2023-10-31T06:31:31;12.10;81.70
83283;DHT22;73190;50.780;5.658;2023-10-31T06:33:58;12.00;81.50
83283;DHT22;73190;50.780;5.658;2023-10-31T06:36:26;12.00;81.90
83283;DHT22;73190;50.780;5.658;2023-10-31T06:38:53;11.90;82.40
83283;DHT22;73190;50.780;5.658;2023-10-31T06:41:22;12.10;81.80
83283;DHT22;73190;50.780;5.658;2023-10-31T06:43:50;12.00;81.90
83283;DHT22;73190;50.780;5.658;2023-10-31T06:46:17;11.90;82.20
83283;DHT22;73190;50.780;5.658;2023-10-31T06:48:45;11.90;82.20
83283;DHT22;73190;50.780;5.658;2023-10-31T06:51:13;11.90;82.80
83283;DHT22;73190;50.780;5.658;2023-10-31T06:53:40;11.90;82.70
83283;DHT22;73190;50.780;5.658;2023-10-31T06:56:08;11.80;82.80
83283;DHT22;73190;50.780;5.658;2023-10-31T06:58:36;11.70;83.40
83283;DHT22;73190;50.780;5.658;2023-10-31T07:01:03;11.80;83.50
83283;DHT22;73190;50.780;5.658;2023-10-31T07:03:31;11.80;83.10
83283;DHT22;73190;50.780;5.658;2023-10-31T07:05:59;11.90;82.50
83283;DHT22;73190;50.780;5.658;2023-10-31T07:08:26;12.00;82.50
83283;DHT22;73190;50.780;5.658;2023-10-31T07:10:55;12.00;81.90
83283;DHT22;73190;50.780;5.658;2023-10-31T07:13:23;12.10;81.60
83283;DHT22;73190;50.780;5.658;2023-10-31T07:15:51;12.20;81.40
83283;DHT22;73190;50.780;5.658;2023-10-31T07:18:18;12.30;81.10
83283;DHT22;73190;50.780;5.658;2023-10-31T07:20:46;12.20;81.40
83283;DHT22;73190;50.780;5.658;2023-10-31T07:23:13;12.20;81.40
83283;DHT22;73190;50.780;5.658;2023-10-31T07:25:42;12.10;82.10
83283;DHT22;73190;50.780;5.658;2023-10-31T07:28:11;12.20;81.70
83283;DHT22;73190;50.780;5.658;2023-10-31T07:30:38;12.30;81.10
83283;DHT22;73190;50.780;5.658;2023-10-31T07:33:06;12.40;81.30
83283;DHT22;73190;50.780;5.658;2023-10-31T07:35:33;12.50;80.50
83283;DHT22;73190;50.780;5.658;2023-10-31T07:38:01;12.50;80.80
83283;DHT22;73190;50.780;5.658;2023-10-31T07:40:28;12.50;81.30
83283;DHT22;73190;50.780;5.658;2023-10-31T07:42:56;12.50;80.90
83283;DHT22;73190;50.780;5.658;2023-10-31T07:45:23;12.60;80.70
83283;DHT22;73190;50.780;5.658;2023-10-31T07:47:51;12.90;80.00
83283;DHT22;73190;50.780;5.658;2023-10-31T07:50:18;12.90;80.00
83283;DHT22;73190;50.780;5.658;2023-10-31T07:52:46;12.90;80.10
83283;DHT22;73190;50.780;5.658;2023-10-31T07:55:14;13.10;79.30
83283;DHT22;73190;50.780;5.658;2023-10-31T07:57:41;13.30;78.90
83283;DHT22;73190;50.780;5.658;2023-10-31T08:00:12;13.50;78.00
83283;DHT22;73190;50.780;5.658;2023-10-31T08:02:40;13.40;77.60
83283;DHT22;73190;50.780;5.658;2023-10-31T08:05:08;13.40;77.90
83283;DHT22;73190;50.780;5.658;2023-10-31T08:07:36;13.40;78.10
83283;DHT22;73190;50.780;5.658;2023-10-31T08:10:05;13.60;77.80
83283;DHT22;73190;50.780;5.658;2023-10-31T08:12:33;13.60;77.10
83283;DHT22;73190;50.780;5.658;2023-10-31T08:15:02;13.80;76.40
83283;DHT22;73190;50.780;5.658;2023-10-31T08:17:29;13.80;76.60
83283;DHT22;73190;50.780;5.658;2023-10-31T08:19:57;13.80;76.10
83283;DHT22;73190;50.780;5.658;2023-10-31T08:22:25;13.70;76.40
83283;DHT22;73190;50.780;5.658;2023-10-31T08:24:52;13.50;77.10
83283;DHT22;73190;50.780;5.658;2023-10-31T08:27:20;13.60;77.30
83283;DHT22;73190;50.780;5.658;2023-10-31T08:29:48;13.20;76.60
83283;DHT22;73190;50.780;5.658;2023-10-31T08:32:15;13.60;76.70
83283;DHT22;73190;50.780;5.658;2023-10-31T08:34:43;13.50;77.20
83283;DHT22;73190;50.780;5.658;2023-10-31T08:37:10;13.30;78.40
83283;DHT22;73190;50.780;5.658;2023-10-31T08:39:38;13.30;78.70
83283;DHT22;73190;50.780;5.658;2023-10-31T08:42:06;13.40;78.30
83283;DHT22;73190;50.780;5.658;2023-10-31T08:44:33;13.40;77.30
83283;DHT22;73190;50.780;5.658;2023-10-31T08:47:03;13.50;77.50
83283;DHT22;73190;50.780;5.658;2023-10-31T08:49:31;13.60;77.20
83283;DHT22;73190;50.780;5.658;2023-10-31T08:51:58;13.80;76.60
83283;DHT22;73190;50.780;5.658;2023-10-31T08:54:27;14.10;74.90
83283;DHT22;73190;50.780;5.658;2023-10-31T08:56:55;14.20;74.50
83283;DHT22;73190;50.780;5.658;2023-10-31T08:59:22;14.30;74.60
83283;DHT22;73190;50.780;5.658;2023-10-31T09:01:50;14.50;73.50
83283;DHT22;73190;50.780;5.658;2023-10-31T09:04:17;14.50;72.80
83283;DHT22;73190;50.780;5.658;2023-10-31T09:06:45;14.50;71.60
83283;DHT22;73190;50.780;5.658;2023-10-31T09:09:13;14.50;71.50
83283;DHT22;73190;50.780;5.658;2023-10-31T09:11:41;14.40;71.70
83283;DHT22;73190;50.780;5.658;2023-10-31T09:14:09;14.30;71.80
83283;DHT22;73190;50.780;5.658;2023-10-31T09:16:36;14.30;72.50
83283;DHT22;73190;50.780;5.658;2023-10-31T09:19:04;14.40;72.20
83283;DHT22;73190;50.780;5.658;2023-10-31T09:21:31;14.40;72.10
83283;DHT22;73190;50.780;5.658;2023-10-31T09:23:59;14.50;71.90
83283;DHT22;73190;50.780;5.658;2023-10-31T09:26:28;14.70;72.30
83283;DHT22;73190;50.780;5.658;2023-10-31T09:28:55;15.10;71.20
83283;DHT22;73190;50.780;5.658;2023-10-31T09:31:23;15.50;69.50
83283;DHT22;73190;50.780;5.658;2023-10-31T09:33:50;15.90;67.60
83283;DHT22;73190;50.780;5.658;2023-10-31T09:36:19;16.60;65.90
83283;DHT22;73190;50.780;5.658;2023-10-31T09:38:47;17.60;61.70
83283;DHT22;73190;50.780;5.658;2023-10-31T09:41:15;18.70;57.80
83283;DHT22;73190;50.780;5.658;2023-10-31T09:43:42;19.80;54.90
83283;DHT22;73190;50.780;5.658;2023-10-31T09:46:10;20.90;52.30
83283;DHT22;73190;50.780;5.658;2023-10-31T09:48:38;21.90;49.00
83283;DHT22;73190;50.780;5.658;2023-10-31T09:51:07;23.00;45.80
83283;DHT22;73190;50.780;5.658;2023-10-31T09:53:37;23.50;46.00
83283;DHT22;73190;50.780;5.658;2023-10-31T09:56:08;24.70;43.20
83283;DHT22;73190;50.780;5.658;2023-10-31T09:58:37;24.50;42.70
83283;DHT22;73190;50.780;5.658;2023-10-31T10:01:06;24.40;40.80
83283;DHT22;73190;50.780;5.658;2023-10-31T10:03:33;24.10;41.20
83283;DHT22;73190;50.780;5.658;2023-10-31T10:06:02;24.10;42.20
83283;DHT22;73190;50.780;5.658;2023-10-31T10:08:30;24.20;42.50
83283;DHT22;73190;50.780;5.658;2023-10-31T10:10:58;22.80;44.50
83283;DHT22;73190;50.780;5.658;2023-10-31T10:13:25;21.70;47.20
83283;DHT22;73190;50.780;5.658;2023-10-31T10:15:53;20.70;50.90
83283;DHT22;73190;50.780;5.658;2023-10-31T10:18:32;20.10;52.00
83283;DHT22;73190;50.780;5.658;2023-10-31T10:21:02;19.70;53.20
83283;DHT22;73190;50.780;5.658;2023-10-31T10:23:30;19.60;54.20
83283;DHT22;73190;50.780;5.658;2023-10-31T10:25:59;21.30;50.00
83283;DHT22;73190;50.780;5.658;2023-10-31T10:28:27;22.70;46.80
83283;DHT22;73190;50.780;5.658;2023-10-31T10:30:59;23.10;45.30
83283;DHT22;73190;50.780;5.658;2023-10-31T10:33:28;22.10;47.70
83283;DHT22;73190;50.780;5.658;2023-10-31T10:35:57;21.70;48.70
83283;DHT22;73190;50.780;5.658;2023-10-31T10:38:31;23.30;46.30
83283;DHT22;73190;50.780;5.658;2023-10-31T10:41:02;25.60;41.00
83283;DHT22;73190;50.780;5.658;2023-10-31T10:43:33;25.60;40.80
83283;DHT22;73190;50.780;5.658;2023-10-31T10:46:03;26.00;39.90
83283;DHT22;73190;50.780;5.658;2023-10-31T10:48:32;26.70;37.50
83283;DHT22;73190;50.780;5.658;2023-10-31T10:53:48;28.40;35.20
83283;DHT22;73190;50.780;5.658;2023-10-31T10:56:13;28.10;35.70
83283;DHT22;73190;50.780;5.658;2023-10-31T10:58:59;26.80;38.00
83283;DHT22;73190;50.780;5.658;2023-10-31T11:01:25;26.30;38.50
83283;DHT22;73190;50.780;5.658;2023-10-31T11:03:55;26.20;38.80
83283;DHT22;73190;50.780;5.658;2023-10-31T11:06:23;28.00;36.60
83283;DHT22;73190;50.780;5.658;2023-10-31T11:08:51;30.40;32.70
83283;DHT22;73190;50.780;5.658;2023-10-31T11:11:20;31.70;30.10
83283;DHT22;73190;50.780;5.658;2023-10-31T11:13:49;30.50;31.40
83283;DHT22;73190;50.780;5.658;2023-10-31T11:17:11;28.40;34.30
83283;DHT22;73190;50.780;5.658;2023-10-31T11:18:54;26.10;37.70
83283;DHT22;73190;50.780;5.658;2023-10-31T11:21:29;24.40;41.70
83283;DHT22;73190;50.780;5.658;2023-10-31T11:24:00;23.30;44.20
83283;DHT22;73190;50.780;5.658;2023-10-31T11:26:31;22.50;45.50
83283;DHT22;73190;50.780;5.658;2023-10-31T11:29:06;21.80;48.70
83283;DHT22;73190;50.780;5.658;2023-10-31T11:31:37;21.00;48.80
83283;DHT22;73190;50.780;5.658;2023-10-31T11:34:06;20.60;49.50
83283;DHT22;73190;50.780;5.658;2023-10-31T11:36:36;20.50;50.40
83283;DHT22;73190;50.780;5.658;2023-10-31T11:39:11;20.20;52.10
83283;DHT22;73190;50.780;5.658;2023-10-31T11:41:49;20.20;52.30
83283;DHT22;73190;50.780;5.658;2023-10-31T11:44:17;20.30;51.40
83283;DHT22;73190;50.780;5.658;2023-10-31T11:46:45;20.20;51.50
83283;DHT22;73190;50.780;5.658;2023-10-31T11:49:14;22.10;49.40
83283;DHT22;73190;50.780;5.658;2023-10-31T11:51:45;24.60;40.40
83283;DHT22;73190;50.780;5.658;2023-10-31T11:54:14;24.40;40.20
83283;DHT22;73190;50.780;5.658;2023-10-31T11:56:50;23.20;42.80
83283;DHT22;73190;50.780;5.658;2023-10-31T11:59:13;22.20;45.70
83283;DHT22;73190;50.780;5.658;2023-10-31T12:01:47;22.80;44.60
83283;DHT22;73190;50.780;5.658;2023-10-31T12:04:23;25.20;39.70
83283;DHT22;73190;50.780;5.658;2023-10-31T12:06:58;25.70;37.50
83283;DHT22;73190;50.780;5.658;2023-10-31T12:09:27;24.90;39.50
83283;DHT22;73190;50.780;5.658;2023-10-31T12:11:54;24.60;40.30
83283;DHT22;73190;50.780;5.658;2023-10-31T12:14:22;24.50;40.70
83283;DHT22;73190;50.780;5.658;2023-10-31T12:16:49;23.60;42.00
83283;DHT22;73190;50.780;5.658;2023-10-31T12:19:20;22.60;44.60
83283;DHT22;73190;50.780;5.658;2023-10-31T12:21:48;22.00;46.50
83283;DHT22;73190;50.780;5.658;2023-10-31T12:24:19;21.40;48.10
83283;DHT22;73190;50.780;5.658;2023-10-31T12:26:47;20.80;49.40
83283;DHT22;73190;50.780;5.658;2023-10-31T12:29:21;20.50;50.20
83283;DHT22;73190;50.780;5.658;2023-10-31T12:31:53;20.00;52.00
83283;DHT22;73190;50.780;5.658;2023-10-31T12:34:24;19.60;53.70
83283;DHT22;73190;50.780;5.658;2023-10-31T12:36:53;19.30;54.20
83283;DHT22;73190;50.780;5.658;2023-10-31T12:39:24;19.00;55.60
83283;DHT22;73190;50.780;5.658;2023-10-31T12:41:52;18.80;55.50
83283;DHT22;73190;50.780;5.658;2023-10-31T12:44:23;18.60;57.30
83283;DHT22;73190;50.780;5.658;2023-10-31T12:46:51;18.40;56.80
83283;DHT22;73190;50.780;5.658;2023-10-31T12:49:21;18.10;57.70
83283;DHT22;73190;50.780;5.658;2023-10-31T12:52:04;17.80;58.80
83283;DHT22;73190;50.780;5.658;2023-10-31T12:54:37;17.40;59.80
83283;DHT22;73190;50.780;5.658;2023-10-31T12:57:08;17.20;61.20
83283;DHT22;73190;50.780;5.658;2023-10-31T12:59:37;17.00;62.80
83283;DHT22;73190;50.780;5.658;2023-10-31T13:02:05;17.20;61.70
83283;DHT22;73190;50.780;5.658;2023-10-31T13:04:33;17.20;61.80
83283;DHT22;73190;50.780;5.658;2023-10-31T13:07:03;17.60;60.70
83283;DHT22;73190;50.780;5.658;2023-10-31T13:09:37;17.90;59.10
83283;DHT22;73190;50.780;5.658;2023-10-31T13:12:08;18.20;57.80
83283;DHT22;73190;50.780;5.658;2023-10-31T13:14:37;18.50;57.60
83283;DHT22;73190;50.780;5.658;2023-10-31T13:17:05;18.40;57.00
83283;DHT22;73190;50.780;5.658;2023-10-31T13:19:33;18.30;58.00
83283;DHT22;73190;50.780;5.658;2023-10-31T13:22:00;18.10;57.90
83283;DHT22;73190;50.780;5.658;2023-10-31T13:24:28;17.70;59.70
83283;DHT22;73190;50.780;5.658;2023-10-31T13:26:55;17.70;59.80
83283;DHT22;73190;50.780;5.658;2023-10-31T13:29:23;17.60;60.00
83283;DHT22;73190;50.780;5.658;2023-10-31T13:31:52;17.40;60.20
83283;DHT22;73190;50.780;5.658;2023-10-31T13:34:20;17.20;61.50
83283;DHT22;73190;50.780;5.658;2023-10-31T13:36:47;17.00;61.60
83283;DHT22;73190;50.780;5.658;2023-10-31T13:39:15;16.90;62.80
83283;DHT22;73190;50.780;5.658;2023-10-31T13:41:42;16.60;63.50
83283;DHT22;73190;50.780;5.658;2023-10-31T13:44:10;16.50;65.00
83283;DHT22;73190;50.780;5.658;2023-10-31T13:46:38;16.50;65.30
83283;DHT22;73190;50.780;5.658;2023-10-31T13:49:05;16.70;64.90
83283;DHT22;73190;50.780;5.658;2023-10-31T13:51:34;16.70;64.50
83283;DHT22;73190;50.780;5.658;2023-10-31T13:54:02;16.60;64.50
83283;DHT22;73190;50.780;5.658;2023-10-31T13:56:29;16.50;64.20
83283;DHT22;73190;50.780;5.658;2023-10-31T13:58:57;16.30;65.20
83283;DHT22;73190;50.780;5.658;2023-10-31T14:01:24;16.10;65.60
83283;DHT22;73190;50.780;5.658;2023-10-31T14:03:52;16.10;66.20
83283;DHT22;73190;50.780;5.658;2023-10-31T14:06:20;16.00;67.50
83283;DHT22;73190;50.780;5.658;2023-10-31T14:08:47;15.80;69.30
83283;DHT22;73190;50.780;5.658;2023-10-31T14:11:15;15.80;68.90
83283;DHT22;73190;50.780;5.658;2023-10-31T14:13:42;15.80;68.80
83283;DHT22;73190;50.780;5.658;2023-10-31T14:16:11;15.70;71.90
83283;DHT22;73190;50.780;5.658;2023-10-31T14:18:39;15.60;73.80
83283;DHT22;73190;50.780;5.658;2023-10-31T14:21:07;15.50;73.80
83283;DHT22;73190;50.780;5.658;2023-10-31T14:23:35;15.50;75.20
83283;DHT22;73190;50.780;5.658;2023-10-31T14:26:02;15.50;75.00
83283;DHT22;73190;50.780;5.658;2023-10-31T14:28:31;15.50;75.30
83283;DHT22;73190;50.780;5.658;2023-10-31T14:30:59;15.50;75.10
83283;DHT22;73190;50.780;5.658;2023-10-31T14:33:27;15.30;75.30
83283;DHT22;73190;50.780;5.658;2023-10-31T14:35:56;15.50;75.00
83283;DHT22;73190;50.780;5.658;2023-10-31T14:38:24;15.50;73.10
83283;DHT22;73190;50.780;5.658;2023-10-31T14:40:52;15.50;72.90
83283;DHT22;73190;50.780;5.658;2023-10-31T14:43:20;15.60;72.20
83283;DHT22;73190;50.780;5.658;2023-10-31T14:45:47;15.60;72.40
83283;DHT22;73190;50.780;5.658;2023-10-31T14:48:15;15.50;72.60
83283;DHT22;73190;50.780;5.658;2023-10-31T14:50:42;15.30;72.90
83283;DHT22;73190;50.780;5.658;2023-10-31T14:53:10;15.20;74.20
83283;DHT22;73190;50.780;5.658;2023-10-31T14:55:37;15.20;75.40
83283;DHT22;73190;50.780;5.658;2023-10-31T14:58:05;15.30;74.20
83283;DHT22;73190;50.780;5.658;2023-10-31T15:00:34;15.40;73.10
83283;DHT22;73190;50.780;5.658;2023-10-31T15:03:03;15.50;73.20
83283;DHT22;73190;50.780;5.658;2023-10-31T15:05:31;15.60;73.10
83283;DHT22;73190;50.780;5.658;2023-10-31T15:07:58;15.70;72.50
83283;DHT22;73190;50.780;5.658;2023-10-31T15:10:27;15.70;72.20
83283;DHT22;73190;50.780;5.658;2023-10-31T15:12:55;15.60;73.20
83283;DHT22;73190;50.780;5.658;2023-10-31T15:15:22;15.50;73.70
83283;DHT22;73190;50.780;5.658;2023-10-31T15:17:50;15.50;73.50
83283;DHT22;73190;50.780;5.658;2023-10-31T15:20:19;15.60;73.40
83283;DHT22;73190;50.780;5.658;2023-10-31T15:22:47;15.60;73.00
83283;DHT22;73190;50.780;5.658;2023-10-31T15:25:15;15.50;73.60
83283;DHT22;73190;50.780;5.658;2023-10-31T15:27:42;15.50;73.90
83283;DHT22;73190;50.780;5.658;2023-10-31T15:30:10;15.70;73.40
83283;DHT22;73190;50.780;5.658;2023-10-31T15:32:38;15.60;73.30
83283;DHT22;73190;50.780;5.658;2023-10-31T15:35:06;15.60;73.90
83283;DHT22;73190;50.780;5.658;2023-10-31T15:37:35;15.40;74.20
83283;DHT22;73190;50.780;5.658;2023-10-31T15:40:03;15.30;74.90